<?xml version="1.0" encoding="UTF-8"?>
<gpx xmlns="http://www.topografix.com/GPX/1/1" xmlns:gpsies="http://www.gpsies.com/GPX/1/0" creator="GPSies http://www.gpsies.com - GPSies Track" version="1.1" xmlns:xsi="http://www.w3.org/2001/XMLSchema-instance" xsi:schemaLocation="http://www.topografix.com/GPX/1/1 http://www.topografix.com/GPX/1/1/gpx.xsd http://www.gpsies.com/GPX/1/0 http://www.gpsies.com/gpsies.xsd">
  <metadata>
    <name>GPSies Track</name>
    <link href="http://www.gpsies.com/">
      <text>GPSies Track on GPSies.com</text>
    </link>
    <time>2015-10-27T22:43:31Z</time>
  </metadata>
  <trk>
    <name>GPSies Track on GPSies.com</name>
    <trkseg>
      <trkpt lat="30.85045852" lon="34.77850914">
        <ele>480.00000</ele>
        <time>2010-01-01T00:00:00Z</time>
      </trkpt>
      <trkpt lat="30.85044000" lon="34.77849000">
        <ele>480.00000</ele>
        <time>2010-01-01T00:00:00Z</time>
      </trkpt>
      <trkpt lat="30.85100000" lon="34.77768000">
        <ele>482.00000</ele>
        <time>2010-01-01T00:00:36Z</time>
      </trkpt>
      <trkpt lat="30.85231000" lon="34.77572000">
        <ele>478.00000</ele>
        <time>2010-01-01T00:02:02Z</time>
      </trkpt>
      <trkpt lat="30.85314000" lon="34.77412000">
        <ele>485.00000</ele>
        <time>2010-01-01T00:03:06Z</time>
      </trkpt>
      <trkpt lat="30.85405000" lon="34.77064000">
        <ele>491.00000</ele>
        <time>2010-01-01T00:05:11Z</time>
      </trkpt>
      <trkpt lat="30.85412000" lon="34.77048000">
        <ele>492.00000</ele>
        <time>2010-01-01T00:05:17Z</time>
      </trkpt>
      <trkpt lat="30.85401000" lon="34.77007000">
        <ele>493.00000</ele>
        <time>2010-01-01T00:05:32Z</time>
      </trkpt>
      <trkpt lat="30.85376000" lon="34.76933000">
        <ele>493.00000</ele>
        <time>2010-01-01T00:05:59Z</time>
      </trkpt>
      <trkpt lat="30.85270000" lon="34.76856000">
        <ele>497.00000</ele>
        <time>2010-01-01T00:06:49Z</time>
      </trkpt>
      <trkpt lat="30.85275000" lon="34.76847000">
        <ele>497.00000</ele>
        <time>2010-01-01T00:06:53Z</time>
      </trkpt>
      <trkpt lat="30.85284000" lon="34.76824000">
        <ele>498.00000</ele>
        <time>2010-01-01T00:07:01Z</time>
      </trkpt>
      <trkpt lat="30.85290000" lon="34.76803000">
        <ele>499.00000</ele>
        <time>2010-01-01T00:07:09Z</time>
      </trkpt>
      <trkpt lat="30.85299000" lon="34.76716000">
        <ele>502.00000</ele>
        <time>2010-01-01T00:07:39Z</time>
      </trkpt>
      <trkpt lat="30.85321000" lon="34.76580000">
        <ele>508.00000</ele>
        <time>2010-01-01T00:08:27Z</time>
      </trkpt>
      <trkpt lat="30.85322000" lon="34.76553000">
        <ele>509.00000</ele>
        <time>2010-01-01T00:08:36Z</time>
      </trkpt>
      <trkpt lat="30.85316000" lon="34.76528000">
        <ele>509.00000</ele>
        <time>2010-01-01T00:08:45Z</time>
      </trkpt>
      <trkpt lat="30.85316000" lon="34.76514000">
        <ele>510.00000</ele>
        <time>2010-01-01T00:08:50Z</time>
      </trkpt>
      <trkpt lat="30.85318000" lon="34.76488000">
        <ele>511.00000</ele>
        <time>2010-01-01T00:08:59Z</time>
      </trkpt>
      <trkpt lat="30.85316000" lon="34.76472000">
        <ele>512.00000</ele>
        <time>2010-01-01T00:09:04Z</time>
      </trkpt>
      <trkpt lat="30.85313000" lon="34.76460000">
        <ele>513.00000</ele>
        <time>2010-01-01T00:09:09Z</time>
      </trkpt>
      <trkpt lat="30.85311000" lon="34.76449000">
        <ele>513.00000</ele>
        <time>2010-01-01T00:09:12Z</time>
      </trkpt>
      <trkpt lat="30.85318000" lon="34.76396000">
        <ele>515.00000</ele>
        <time>2010-01-01T00:09:31Z</time>
      </trkpt>
      <trkpt lat="30.85315000" lon="34.76367000">
        <ele>517.00000</ele>
        <time>2010-01-01T00:09:41Z</time>
      </trkpt>
      <trkpt lat="30.85315000" lon="34.76356000">
        <ele>518.00000</ele>
        <time>2010-01-01T00:09:45Z</time>
      </trkpt>
      <trkpt lat="30.85326000" lon="34.76321000">
        <ele>519.00000</ele>
        <time>2010-01-01T00:09:58Z</time>
      </trkpt>
      <trkpt lat="30.85329000" lon="34.76304000">
        <ele>519.00000</ele>
        <time>2010-01-01T00:10:03Z</time>
      </trkpt>
      <trkpt lat="30.85330000" lon="34.76259000">
        <ele>521.00000</ele>
        <time>2010-01-01T00:10:19Z</time>
      </trkpt>
      <trkpt lat="30.85331000" lon="34.76243000">
        <ele>521.00000</ele>
        <time>2010-01-01T00:10:24Z</time>
      </trkpt>
      <trkpt lat="30.85341000" lon="34.76213000">
        <ele>522.00000</ele>
        <time>2010-01-01T00:10:36Z</time>
      </trkpt>
      <trkpt lat="30.85345000" lon="34.76193000">
        <ele>522.00000</ele>
        <time>2010-01-01T00:10:43Z</time>
      </trkpt>
      <trkpt lat="30.85349000" lon="34.76185000">
        <ele>522.00000</ele>
        <time>2010-01-01T00:10:46Z</time>
      </trkpt>
      <trkpt lat="30.85358000" lon="34.76176000">
        <ele>522.00000</ele>
        <time>2010-01-01T00:10:51Z</time>
      </trkpt>
      <trkpt lat="30.85377000" lon="34.76163000">
        <ele>524.00000</ele>
        <time>2010-01-01T00:10:59Z</time>
      </trkpt>
      <trkpt lat="30.85442000" lon="34.76127000">
        <ele>531.00000</ele>
        <time>2010-01-01T00:11:28Z</time>
      </trkpt>
      <trkpt lat="30.85456000" lon="34.76117000">
        <ele>532.00000</ele>
        <time>2010-01-01T00:11:35Z</time>
      </trkpt>
      <trkpt lat="30.85489000" lon="34.76087000">
        <ele>537.00000</ele>
        <time>2010-01-01T00:11:51Z</time>
      </trkpt>
      <trkpt lat="30.85536000" lon="34.76071000">
        <ele>540.00000</ele>
        <time>2010-01-01T00:12:11Z</time>
      </trkpt>
      <trkpt lat="30.85555000" lon="34.76070000">
        <ele>542.00000</ele>
        <time>2010-01-01T00:12:19Z</time>
      </trkpt>
      <trkpt lat="30.85562000" lon="34.76072000">
        <ele>543.00000</ele>
        <time>2010-01-01T00:12:22Z</time>
      </trkpt>
      <trkpt lat="30.85567000" lon="34.76080000">
        <ele>543.00000</ele>
        <time>2010-01-01T00:12:25Z</time>
      </trkpt>
      <trkpt lat="30.85574000" lon="34.76135000">
        <ele>545.00000</ele>
        <time>2010-01-01T00:12:44Z</time>
      </trkpt>
      <trkpt lat="30.85579000" lon="34.76153000">
        <ele>547.00000</ele>
        <time>2010-01-01T00:12:51Z</time>
      </trkpt>
      <trkpt lat="30.85583000" lon="34.76159000">
        <ele>548.00000</ele>
        <time>2010-01-01T00:12:53Z</time>
      </trkpt>
      <trkpt lat="30.85590000" lon="34.76164000">
        <ele>549.00000</ele>
        <time>2010-01-01T00:12:56Z</time>
      </trkpt>
      <trkpt lat="30.85603000" lon="34.76165000">
        <ele>549.00000</ele>
        <time>2010-01-01T00:13:02Z</time>
      </trkpt>
      <trkpt lat="30.85606000" lon="34.76131000">
        <ele>547.00000</ele>
        <time>2010-01-01T00:13:13Z</time>
      </trkpt>
      <trkpt lat="30.85602000" lon="34.76082000">
        <ele>545.00000</ele>
        <time>2010-01-01T00:13:30Z</time>
      </trkpt>
      <trkpt lat="30.85575000" lon="34.76012000">
        <ele>548.00000</ele>
        <time>2010-01-01T00:13:57Z</time>
      </trkpt>
      <trkpt lat="30.85580000" lon="34.75995000">
        <ele>548.00000</ele>
        <time>2010-01-01T00:14:03Z</time>
      </trkpt>
      <trkpt lat="30.85585000" lon="34.75987000">
        <ele>548.00000</ele>
        <time>2010-01-01T00:14:06Z</time>
      </trkpt>
      <trkpt lat="30.85593000" lon="34.75980000">
        <ele>547.00000</ele>
        <time>2010-01-01T00:14:10Z</time>
      </trkpt>
      <trkpt lat="30.85617000" lon="34.75975000">
        <ele>546.00000</ele>
        <time>2010-01-01T00:14:20Z</time>
      </trkpt>
      <trkpt lat="30.85659000" lon="34.75960000">
        <ele>543.00000</ele>
        <time>2010-01-01T00:14:38Z</time>
      </trkpt>
      <trkpt lat="30.85667000" lon="34.75956000">
        <ele>542.00000</ele>
        <time>2010-01-01T00:14:41Z</time>
      </trkpt>
      <trkpt lat="30.85684000" lon="34.75939000">
        <ele>540.00000</ele>
        <time>2010-01-01T00:14:50Z</time>
      </trkpt>
      <trkpt lat="30.85683000" lon="34.75931000">
        <ele>539.00000</ele>
        <time>2010-01-01T00:14:53Z</time>
      </trkpt>
      <trkpt lat="30.85676000" lon="34.75929000">
        <ele>538.00000</ele>
        <time>2010-01-01T00:14:56Z</time>
      </trkpt>
      <trkpt lat="30.85653000" lon="34.75932000">
        <ele>539.00000</ele>
        <time>2010-01-01T00:15:05Z</time>
      </trkpt>
      <trkpt lat="30.85615000" lon="34.75943000">
        <ele>540.00000</ele>
        <time>2010-01-01T00:15:21Z</time>
      </trkpt>
      <trkpt lat="30.85607000" lon="34.75942000">
        <ele>541.00000</ele>
        <time>2010-01-01T00:15:24Z</time>
      </trkpt>
      <trkpt lat="30.85603000" lon="34.75939000">
        <ele>541.00000</ele>
        <time>2010-01-01T00:15:26Z</time>
      </trkpt>
      <trkpt lat="30.85579000" lon="34.75932000">
        <ele>544.00000</ele>
        <time>2010-01-01T00:15:36Z</time>
      </trkpt>
      <trkpt lat="30.85603000" lon="34.75923000">
        <ele>540.00000</ele>
        <time>2010-01-01T00:15:46Z</time>
      </trkpt>
      <trkpt lat="30.85607000" lon="34.75920000">
        <ele>539.00000</ele>
        <time>2010-01-01T00:15:48Z</time>
      </trkpt>
      <trkpt lat="30.85624000" lon="34.75917000">
        <ele>539.00000</ele>
        <time>2010-01-01T00:15:55Z</time>
      </trkpt>
      <trkpt lat="30.85638000" lon="34.75906000">
        <ele>538.00000</ele>
        <time>2010-01-01T00:16:01Z</time>
      </trkpt>
      <trkpt lat="30.85654000" lon="34.75897000">
        <ele>536.00000</ele>
        <time>2010-01-01T00:16:09Z</time>
      </trkpt>
      <trkpt lat="30.85706000" lon="34.75860000">
        <ele>530.00000</ele>
        <time>2010-01-01T00:16:33Z</time>
      </trkpt>
      <trkpt lat="30.85713000" lon="34.75851000">
        <ele>529.00000</ele>
        <time>2010-01-01T00:16:37Z</time>
      </trkpt>
      <trkpt lat="30.85732000" lon="34.75815000">
        <ele>526.00000</ele>
        <time>2010-01-01T00:16:52Z</time>
      </trkpt>
      <trkpt lat="30.85741000" lon="34.75803000">
        <ele>525.00000</ele>
        <time>2010-01-01T00:16:57Z</time>
      </trkpt>
      <trkpt lat="30.85762000" lon="34.75785000">
        <ele>524.00000</ele>
        <time>2010-01-01T00:17:08Z</time>
      </trkpt>
      <trkpt lat="30.85775000" lon="34.75762000">
        <ele>522.00000</ele>
        <time>2010-01-01T00:17:17Z</time>
      </trkpt>
      <trkpt lat="30.85782000" lon="34.75752000">
        <ele>521.00000</ele>
        <time>2010-01-01T00:17:21Z</time>
      </trkpt>
      <trkpt lat="30.85807000" lon="34.75726000">
        <ele>517.00000</ele>
        <time>2010-01-01T00:17:35Z</time>
      </trkpt>
      <trkpt lat="30.85823000" lon="34.75713000">
        <ele>518.00000</ele>
        <time>2010-01-01T00:17:43Z</time>
      </trkpt>
      <trkpt lat="30.85855000" lon="34.75676000">
        <ele>516.00000</ele>
        <time>2010-01-01T00:18:01Z</time>
      </trkpt>
      <trkpt lat="30.85872000" lon="34.75665000">
        <ele>514.00000</ele>
        <time>2010-01-01T00:18:08Z</time>
      </trkpt>
      <trkpt lat="30.85887000" lon="34.75660000">
        <ele>514.00000</ele>
        <time>2010-01-01T00:18:15Z</time>
      </trkpt>
      <trkpt lat="30.85896000" lon="34.75659000">
        <ele>514.00000</ele>
        <time>2010-01-01T00:18:18Z</time>
      </trkpt>
      <trkpt lat="30.85939000" lon="34.75660000">
        <ele>515.00000</ele>
        <time>2010-01-01T00:18:36Z</time>
      </trkpt>
      <trkpt lat="30.85951000" lon="34.75659000">
        <ele>514.00000</ele>
        <time>2010-01-01T00:18:40Z</time>
      </trkpt>
      <trkpt lat="30.85988000" lon="34.75649000">
        <ele>510.00000</ele>
        <time>2010-01-01T00:18:56Z</time>
      </trkpt>
      <trkpt lat="30.86012000" lon="34.75648000">
        <ele>510.00000</ele>
        <time>2010-01-01T00:19:05Z</time>
      </trkpt>
      <trkpt lat="30.86024000" lon="34.75649000">
        <ele>511.00000</ele>
        <time>2010-01-01T00:19:10Z</time>
      </trkpt>
      <trkpt lat="30.86035000" lon="34.75653000">
        <ele>511.00000</ele>
        <time>2010-01-01T00:19:15Z</time>
      </trkpt>
      <trkpt lat="30.86048000" lon="34.75660000">
        <ele>511.00000</ele>
        <time>2010-01-01T00:19:20Z</time>
      </trkpt>
      <trkpt lat="30.86068000" lon="34.75680000">
        <ele>510.00000</ele>
        <time>2010-01-01T00:19:31Z</time>
      </trkpt>
      <trkpt lat="30.86079000" lon="34.75690000">
        <ele>509.00000</ele>
        <time>2010-01-01T00:19:36Z</time>
      </trkpt>
      <trkpt lat="30.86098000" lon="34.75710000">
        <ele>507.00000</ele>
        <time>2010-01-01T00:19:47Z</time>
      </trkpt>
      <trkpt lat="30.86106000" lon="34.75715000">
        <ele>506.00000</ele>
        <time>2010-01-01T00:19:50Z</time>
      </trkpt>
      <trkpt lat="30.86136000" lon="34.75723000">
        <ele>504.00000</ele>
        <time>2010-01-01T00:20:03Z</time>
      </trkpt>
      <trkpt lat="30.86143000" lon="34.75722000">
        <ele>504.00000</ele>
        <time>2010-01-01T00:20:05Z</time>
      </trkpt>
      <trkpt lat="30.86195000" lon="34.75709000">
        <ele>504.00000</ele>
        <time>2010-01-01T00:20:27Z</time>
      </trkpt>
      <trkpt lat="30.86206000" lon="34.75707000">
        <ele>503.00000</ele>
        <time>2010-01-01T00:20:31Z</time>
      </trkpt>
      <trkpt lat="30.86263000" lon="34.75722000">
        <ele>499.00000</ele>
        <time>2010-01-01T00:20:55Z</time>
      </trkpt>
      <trkpt lat="30.86273000" lon="34.75723000">
        <ele>499.00000</ele>
        <time>2010-01-01T00:20:59Z</time>
      </trkpt>
      <trkpt lat="30.86292000" lon="34.75720000">
        <ele>498.00000</ele>
        <time>2010-01-01T00:21:06Z</time>
      </trkpt>
      <trkpt lat="30.86303000" lon="34.75713000">
        <ele>498.00000</ele>
        <time>2010-01-01T00:21:11Z</time>
      </trkpt>
      <trkpt lat="30.86313000" lon="34.75705000">
        <ele>499.00000</ele>
        <time>2010-01-01T00:21:16Z</time>
      </trkpt>
      <trkpt lat="30.86331000" lon="34.75681000">
        <ele>497.00000</ele>
        <time>2010-01-01T00:21:27Z</time>
      </trkpt>
      <trkpt lat="30.86356000" lon="34.75642000">
        <ele>493.00000</ele>
        <time>2010-01-01T00:21:44Z</time>
      </trkpt>
      <trkpt lat="30.86362000" lon="34.75621000">
        <ele>493.00000</ele>
        <time>2010-01-01T00:21:51Z</time>
      </trkpt>
      <trkpt lat="30.86368000" lon="34.75613000">
        <ele>493.00000</ele>
        <time>2010-01-01T00:21:55Z</time>
      </trkpt>
      <trkpt lat="30.86385000" lon="34.75607000">
        <ele>493.00000</ele>
        <time>2010-01-01T00:22:02Z</time>
      </trkpt>
      <trkpt lat="30.86397000" lon="34.75598000">
        <ele>494.00000</ele>
        <time>2010-01-01T00:22:08Z</time>
      </trkpt>
      <trkpt lat="30.86408000" lon="34.75594000">
        <ele>494.00000</ele>
        <time>2010-01-01T00:22:13Z</time>
      </trkpt>
      <trkpt lat="30.86415000" lon="34.75594000">
        <ele>493.00000</ele>
        <time>2010-01-01T00:22:15Z</time>
      </trkpt>
      <trkpt lat="30.86427000" lon="34.75597000">
        <ele>493.00000</ele>
        <time>2010-01-01T00:22:20Z</time>
      </trkpt>
      <trkpt lat="30.86459000" lon="34.75612000">
        <ele>493.00000</ele>
        <time>2010-01-01T00:22:34Z</time>
      </trkpt>
      <trkpt lat="30.86473000" lon="34.75614000">
        <ele>493.00000</ele>
        <time>2010-01-01T00:22:40Z</time>
      </trkpt>
      <trkpt lat="30.86482000" lon="34.75612000">
        <ele>492.00000</ele>
        <time>2010-01-01T00:22:43Z</time>
      </trkpt>
      <trkpt lat="30.86498000" lon="34.75606000">
        <ele>491.00000</ele>
        <time>2010-01-01T00:22:50Z</time>
      </trkpt>
      <trkpt lat="30.86522000" lon="34.75591000">
        <ele>488.00000</ele>
        <time>2010-01-01T00:23:01Z</time>
      </trkpt>
      <trkpt lat="30.86579000" lon="34.75573000">
        <ele>486.00000</ele>
        <time>2010-01-01T00:23:25Z</time>
      </trkpt>
      <trkpt lat="30.86627000" lon="34.75566000">
        <ele>485.00000</ele>
        <time>2010-01-01T00:23:44Z</time>
      </trkpt>
      <trkpt lat="30.86646000" lon="34.75556000">
        <ele>485.00000</ele>
        <time>2010-01-01T00:23:52Z</time>
      </trkpt>
      <trkpt lat="30.86662000" lon="34.75544000">
        <ele>484.00000</ele>
        <time>2010-01-01T00:24:00Z</time>
      </trkpt>
      <trkpt lat="30.86697000" lon="34.75506000">
        <ele>486.00000</ele>
        <time>2010-01-01T00:24:19Z</time>
      </trkpt>
      <trkpt lat="30.86708000" lon="34.75487000">
        <ele>487.00000</ele>
        <time>2010-01-01T00:24:27Z</time>
      </trkpt>
      <trkpt lat="30.86714000" lon="34.75480000">
        <ele>488.00000</ele>
        <time>2010-01-01T00:24:30Z</time>
      </trkpt>
      <trkpt lat="30.86742000" lon="34.75470000">
        <ele>489.00000</ele>
        <time>2010-01-01T00:24:42Z</time>
      </trkpt>
      <trkpt lat="30.86765000" lon="34.75455000">
        <ele>490.00000</ele>
        <time>2010-01-01T00:24:53Z</time>
      </trkpt>
      <trkpt lat="30.86793000" lon="34.75455000">
        <ele>488.00000</ele>
        <time>2010-01-01T00:25:04Z</time>
      </trkpt>
      <trkpt lat="30.86805000" lon="34.75457000">
        <ele>488.00000</ele>
        <time>2010-01-01T00:25:09Z</time>
      </trkpt>
      <trkpt lat="30.86850000" lon="34.75473000">
        <ele>487.00000</ele>
        <time>2010-01-01T00:25:28Z</time>
      </trkpt>
      <trkpt lat="30.86870000" lon="34.75475000">
        <ele>487.00000</ele>
        <time>2010-01-01T00:25:36Z</time>
      </trkpt>
      <trkpt lat="30.86878000" lon="34.75477000">
        <ele>487.00000</ele>
        <time>2010-01-01T00:25:39Z</time>
      </trkpt>
      <trkpt lat="30.86905000" lon="34.75489000">
        <ele>487.00000</ele>
        <time>2010-01-01T00:25:50Z</time>
      </trkpt>
      <trkpt lat="30.86927000" lon="34.75503000">
        <ele>485.00000</ele>
        <time>2010-01-01T00:26:01Z</time>
      </trkpt>
      <trkpt lat="30.86953000" lon="34.75511000">
        <ele>485.00000</ele>
        <time>2010-01-01T00:26:11Z</time>
      </trkpt>
      <trkpt lat="30.86992000" lon="34.75529000">
        <ele>485.00000</ele>
        <time>2010-01-01T00:26:28Z</time>
      </trkpt>
      <trkpt lat="30.87020000" lon="34.75540000">
        <ele>483.00000</ele>
        <time>2010-01-01T00:26:40Z</time>
      </trkpt>
      <trkpt lat="30.87040000" lon="34.75545000">
        <ele>480.00000</ele>
        <time>2010-01-01T00:26:48Z</time>
      </trkpt>
      <trkpt lat="30.87055000" lon="34.75543000">
        <ele>480.00000</ele>
        <time>2010-01-01T00:26:54Z</time>
      </trkpt>
      <trkpt lat="30.87072000" lon="34.75547000">
        <ele>480.00000</ele>
        <time>2010-01-01T00:27:01Z</time>
      </trkpt>
      <trkpt lat="30.87091000" lon="34.75547000">
        <ele>480.00000</ele>
        <time>2010-01-01T00:27:09Z</time>
      </trkpt>
      <trkpt lat="30.87114000" lon="34.75543000">
        <ele>480.00000</ele>
        <time>2010-01-01T00:27:18Z</time>
      </trkpt>
      <trkpt lat="30.87144000" lon="34.75544000">
        <ele>479.00000</ele>
        <time>2010-01-01T00:27:30Z</time>
      </trkpt>
      <trkpt lat="30.87230000" lon="34.75537000">
        <ele>476.00000</ele>
        <time>2010-01-01T00:28:05Z</time>
      </trkpt>
      <trkpt lat="30.87275000" lon="34.75538000">
        <ele>475.00000</ele>
        <time>2010-01-01T00:28:23Z</time>
      </trkpt>
      <trkpt lat="30.87319000" lon="34.75544000">
        <ele>472.00000</ele>
        <time>2010-01-01T00:28:40Z</time>
      </trkpt>
      <trkpt lat="30.87415000" lon="34.75565000">
        <ele>471.00000</ele>
        <time>2010-01-01T00:29:19Z</time>
      </trkpt>
      <trkpt lat="30.87446000" lon="34.75568000">
        <ele>468.00000</ele>
        <time>2010-01-01T00:29:32Z</time>
      </trkpt>
      <trkpt lat="30.87464000" lon="34.75568000">
        <ele>468.00000</ele>
        <time>2010-01-01T00:29:39Z</time>
      </trkpt>
      <trkpt lat="30.87492000" lon="34.75564000">
        <ele>468.00000</ele>
        <time>2010-01-01T00:29:50Z</time>
      </trkpt>
      <trkpt lat="30.87525000" lon="34.75564000">
        <ele>466.00000</ele>
        <time>2010-01-01T00:30:04Z</time>
      </trkpt>
      <trkpt lat="30.87538000" lon="34.75562000">
        <ele>465.00000</ele>
        <time>2010-01-01T00:30:09Z</time>
      </trkpt>
      <trkpt lat="30.87556000" lon="34.75556000">
        <ele>465.00000</ele>
        <time>2010-01-01T00:30:16Z</time>
      </trkpt>
      <trkpt lat="30.87570000" lon="34.75555000">
        <ele>466.00000</ele>
        <time>2010-01-01T00:30:22Z</time>
      </trkpt>
      <trkpt lat="30.87578000" lon="34.75552000">
        <ele>466.00000</ele>
        <time>2010-01-01T00:30:25Z</time>
      </trkpt>
      <trkpt lat="30.87597000" lon="34.75541000">
        <ele>467.00000</ele>
        <time>2010-01-01T00:30:34Z</time>
      </trkpt>
      <trkpt lat="30.87605000" lon="34.75539000">
        <ele>467.00000</ele>
        <time>2010-01-01T00:30:37Z</time>
      </trkpt>
      <trkpt lat="30.87622000" lon="34.75541000">
        <ele>466.00000</ele>
        <time>2010-01-01T00:30:44Z</time>
      </trkpt>
      <trkpt lat="30.87661000" lon="34.75537000">
        <ele>463.00000</ele>
        <time>2010-01-01T00:31:00Z</time>
      </trkpt>
      <trkpt lat="30.87738000" lon="34.75524000">
        <ele>461.00000</ele>
        <time>2010-01-01T00:31:31Z</time>
      </trkpt>
      <trkpt lat="30.87750000" lon="34.75521000">
        <ele>460.00000</ele>
        <time>2010-01-01T00:31:36Z</time>
      </trkpt>
      <trkpt lat="30.87758000" lon="34.75513000">
        <ele>459.00000</ele>
        <time>2010-01-01T00:31:40Z</time>
      </trkpt>
      <trkpt lat="30.87770000" lon="34.75493000">
        <ele>459.00000</ele>
        <time>2010-01-01T00:31:48Z</time>
      </trkpt>
      <trkpt lat="30.87777000" lon="34.75480000">
        <ele>458.00000</ele>
        <time>2010-01-01T00:31:53Z</time>
      </trkpt>
      <trkpt lat="30.87791000" lon="34.75446000">
        <ele>457.00000</ele>
        <time>2010-01-01T00:32:06Z</time>
      </trkpt>
      <trkpt lat="30.87808000" lon="34.75414000">
        <ele>455.00000</ele>
        <time>2010-01-01T00:32:19Z</time>
      </trkpt>
      <trkpt lat="30.87819000" lon="34.75386000">
        <ele>455.00000</ele>
        <time>2010-01-01T00:32:30Z</time>
      </trkpt>
      <trkpt lat="30.87815000" lon="34.75373000">
        <ele>456.00000</ele>
        <time>2010-01-01T00:32:35Z</time>
      </trkpt>
      <trkpt lat="30.87815000" lon="34.75372000">
        <ele>456.00000</ele>
        <time>2010-01-01T00:32:35Z</time>
      </trkpt>
      <trkpt lat="30.87805000" lon="34.75341000">
        <ele>458.00000</ele>
        <time>2010-01-01T00:32:46Z</time>
      </trkpt>
      <trkpt lat="30.87803000" lon="34.75325000">
        <ele>458.00000</ele>
        <time>2010-01-01T00:32:52Z</time>
      </trkpt>
      <trkpt lat="30.87801000" lon="34.75292000">
        <ele>456.00000</ele>
        <time>2010-01-01T00:33:03Z</time>
      </trkpt>
      <trkpt lat="30.87780000" lon="34.75240000">
        <ele>453.00000</ele>
        <time>2010-01-01T00:33:23Z</time>
      </trkpt>
      <trkpt lat="30.87770000" lon="34.75200000">
        <ele>450.00000</ele>
        <time>2010-01-01T00:33:37Z</time>
      </trkpt>
      <trkpt lat="30.87660000" lon="34.75057000">
        <ele>449.00000</ele>
        <time>2010-01-01T00:34:43Z</time>
      </trkpt>
      <trkpt lat="30.87638000" lon="34.75032000">
        <ele>449.00000</ele>
        <time>2010-01-01T00:34:56Z</time>
      </trkpt>
      <trkpt lat="30.87626000" lon="34.75021000">
        <ele>450.00000</ele>
        <time>2010-01-01T00:35:02Z</time>
      </trkpt>
      <trkpt lat="30.87558000" lon="34.74972000">
        <ele>451.00000</ele>
        <time>2010-01-01T00:35:34Z</time>
      </trkpt>
      <trkpt lat="30.87520000" lon="34.74948000">
        <ele>452.00000</ele>
        <time>2010-01-01T00:35:51Z</time>
      </trkpt>
      <trkpt lat="30.87485000" lon="34.74919000">
        <ele>452.00000</ele>
        <time>2010-01-01T00:36:08Z</time>
      </trkpt>
      <trkpt lat="30.87466000" lon="34.74907000">
        <ele>452.00000</ele>
        <time>2010-01-01T00:36:17Z</time>
      </trkpt>
      <trkpt lat="30.87419000" lon="34.74868000">
        <ele>452.00000</ele>
        <time>2010-01-01T00:36:40Z</time>
      </trkpt>
      <trkpt lat="30.87399000" lon="34.74854000">
        <ele>452.00000</ele>
        <time>2010-01-01T00:36:49Z</time>
      </trkpt>
      <trkpt lat="30.87351000" lon="34.74817000">
        <ele>454.00000</ele>
        <time>2010-01-01T00:37:12Z</time>
      </trkpt>
      <trkpt lat="30.87320000" lon="34.74797000">
        <ele>453.00000</ele>
        <time>2010-01-01T00:37:27Z</time>
      </trkpt>
      <trkpt lat="30.87281000" lon="34.74764000">
        <ele>456.00000</ele>
        <time>2010-01-01T00:37:46Z</time>
      </trkpt>
      <trkpt lat="30.87235000" lon="34.74734000">
        <ele>455.00000</ele>
        <time>2010-01-01T00:38:07Z</time>
      </trkpt>
      <trkpt lat="30.87220000" lon="34.74719000">
        <ele>454.00000</ele>
        <time>2010-01-01T00:38:15Z</time>
      </trkpt>
      <trkpt lat="30.87194000" lon="34.74704000">
        <ele>456.00000</ele>
        <time>2010-01-01T00:38:26Z</time>
      </trkpt>
      <trkpt lat="30.87149000" lon="34.74684000">
        <ele>459.00000</ele>
        <time>2010-01-01T00:38:46Z</time>
      </trkpt>
      <trkpt lat="30.87121000" lon="34.74675000">
        <ele>460.00000</ele>
        <time>2010-01-01T00:38:57Z</time>
      </trkpt>
      <trkpt lat="30.87093000" lon="34.74662000">
        <ele>459.00000</ele>
        <time>2010-01-01T00:39:09Z</time>
      </trkpt>
      <trkpt lat="30.86963000" lon="34.74610000">
        <ele>462.00000</ele>
        <time>2010-01-01T00:40:04Z</time>
      </trkpt>
      <trkpt lat="30.86909000" lon="34.74583000">
        <ele>462.00000</ele>
        <time>2010-01-01T00:40:28Z</time>
      </trkpt>
      <trkpt lat="30.86863000" lon="34.74567000">
        <ele>461.00000</ele>
        <time>2010-01-01T00:40:47Z</time>
      </trkpt>
      <trkpt lat="30.86842000" lon="34.74558000">
        <ele>461.00000</ele>
        <time>2010-01-01T00:40:56Z</time>
      </trkpt>
      <trkpt lat="30.86709000" lon="34.74485000">
        <ele>462.00000</ele>
        <time>2010-01-01T00:41:55Z</time>
      </trkpt>
      <trkpt lat="30.86634000" lon="34.74449000">
        <ele>461.00000</ele>
        <time>2010-01-01T00:42:28Z</time>
      </trkpt>
      <trkpt lat="30.86615000" lon="34.74443000">
        <ele>461.00000</ele>
        <time>2010-01-01T00:42:35Z</time>
      </trkpt>
      <trkpt lat="30.86593000" lon="34.74433000">
        <ele>461.00000</ele>
        <time>2010-01-01T00:42:45Z</time>
      </trkpt>
      <trkpt lat="30.86537000" lon="34.74404000">
        <ele>463.00000</ele>
        <time>2010-01-01T00:43:09Z</time>
      </trkpt>
      <trkpt lat="30.86497000" lon="34.74387000">
        <ele>463.00000</ele>
        <time>2010-01-01T00:43:26Z</time>
      </trkpt>
      <trkpt lat="30.86489000" lon="34.74382000">
        <ele>463.00000</ele>
        <time>2010-01-01T00:43:30Z</time>
      </trkpt>
      <trkpt lat="30.86454000" lon="34.74350000">
        <ele>463.00000</ele>
        <time>2010-01-01T00:43:48Z</time>
      </trkpt>
      <trkpt lat="30.86432000" lon="34.74337000">
        <ele>464.00000</ele>
        <time>2010-01-01T00:43:58Z</time>
      </trkpt>
      <trkpt lat="30.86406000" lon="34.74317000">
        <ele>464.00000</ele>
        <time>2010-01-01T00:44:10Z</time>
      </trkpt>
      <trkpt lat="30.86377000" lon="34.74290000">
        <ele>464.00000</ele>
        <time>2010-01-01T00:44:25Z</time>
      </trkpt>
      <trkpt lat="30.86366000" lon="34.74285000">
        <ele>464.00000</ele>
        <time>2010-01-01T00:44:30Z</time>
      </trkpt>
      <trkpt lat="30.86357000" lon="34.74285000">
        <ele>466.00000</ele>
        <time>2010-01-01T00:44:33Z</time>
      </trkpt>
      <trkpt lat="30.86276000" lon="34.74203000">
        <ele>470.00000</ele>
        <time>2010-01-01T00:45:16Z</time>
      </trkpt>
      <trkpt lat="30.86254000" lon="34.74159000">
        <ele>469.00000</ele>
        <time>2010-01-01T00:45:34Z</time>
      </trkpt>
      <trkpt lat="30.86242000" lon="34.74162000">
        <ele>469.00000</ele>
        <time>2010-01-01T00:45:39Z</time>
      </trkpt>
      <trkpt lat="30.86236000" lon="34.74165000">
        <ele>470.00000</ele>
        <time>2010-01-01T00:45:41Z</time>
      </trkpt>
      <trkpt lat="30.86232000" lon="34.74169000">
        <ele>470.00000</ele>
        <time>2010-01-01T00:45:43Z</time>
      </trkpt>
      <trkpt lat="30.86216000" lon="34.74187000">
        <ele>472.00000</ele>
        <time>2010-01-01T00:45:52Z</time>
      </trkpt>
      <trkpt lat="30.86155000" lon="34.74237000">
        <ele>476.00000</ele>
        <time>2010-01-01T00:46:22Z</time>
      </trkpt>
      <trkpt lat="30.86124000" lon="34.74265000">
        <ele>477.00000</ele>
        <time>2010-01-01T00:46:38Z</time>
      </trkpt>
      <trkpt lat="30.86060000" lon="34.74297000">
        <ele>476.00000</ele>
        <time>2010-01-01T00:47:06Z</time>
      </trkpt>
      <trkpt lat="30.86021000" lon="34.74320000">
        <ele>476.00000</ele>
        <time>2010-01-01T00:47:23Z</time>
      </trkpt>
      <trkpt lat="30.86005000" lon="34.74326000">
        <ele>476.00000</ele>
        <time>2010-01-01T00:47:30Z</time>
      </trkpt>
      <trkpt lat="30.85990000" lon="34.74329000">
        <ele>477.00000</ele>
        <time>2010-01-01T00:47:36Z</time>
      </trkpt>
      <trkpt lat="30.85959000" lon="34.74329000">
        <ele>478.00000</ele>
        <time>2010-01-01T00:47:49Z</time>
      </trkpt>
      <trkpt lat="30.85919000" lon="34.74335000">
        <ele>478.00000</ele>
        <time>2010-01-01T00:48:05Z</time>
      </trkpt>
      <trkpt lat="30.85901000" lon="34.74343000">
        <ele>478.00000</ele>
        <time>2010-01-01T00:48:12Z</time>
      </trkpt>
      <trkpt lat="30.85888000" lon="34.74353000">
        <ele>478.00000</ele>
        <time>2010-01-01T00:48:19Z</time>
      </trkpt>
      <trkpt lat="30.85855000" lon="34.74389000">
        <ele>478.00000</ele>
        <time>2010-01-01T00:48:37Z</time>
      </trkpt>
      <trkpt lat="30.85845000" lon="34.74403000">
        <ele>479.00000</ele>
        <time>2010-01-01T00:48:43Z</time>
      </trkpt>
      <trkpt lat="30.85827000" lon="34.74430000">
        <ele>481.00000</ele>
        <time>2010-01-01T00:48:55Z</time>
      </trkpt>
      <trkpt lat="30.85814000" lon="34.74453000">
        <ele>482.00000</ele>
        <time>2010-01-01T00:49:04Z</time>
      </trkpt>
      <trkpt lat="30.85800000" lon="34.74484000">
        <ele>484.00000</ele>
        <time>2010-01-01T00:49:16Z</time>
      </trkpt>
      <trkpt lat="30.85796000" lon="34.74491000">
        <ele>484.00000</ele>
        <time>2010-01-01T00:49:19Z</time>
      </trkpt>
      <trkpt lat="30.85792000" lon="34.74494000">
        <ele>484.00000</ele>
        <time>2010-01-01T00:49:21Z</time>
      </trkpt>
      <trkpt lat="30.85785000" lon="34.74497000">
        <ele>484.00000</ele>
        <time>2010-01-01T00:49:24Z</time>
      </trkpt>
      <trkpt lat="30.85745000" lon="34.74502000">
        <ele>484.00000</ele>
        <time>2010-01-01T00:49:40Z</time>
      </trkpt>
      <trkpt lat="30.85722000" lon="34.74502000">
        <ele>485.00000</ele>
        <time>2010-01-01T00:49:49Z</time>
      </trkpt>
      <trkpt lat="30.85709000" lon="34.74506000">
        <ele>486.00000</ele>
        <time>2010-01-01T00:49:55Z</time>
      </trkpt>
      <trkpt lat="30.85672000" lon="34.74538000">
        <ele>488.00000</ele>
        <time>2010-01-01T00:50:13Z</time>
      </trkpt>
      <trkpt lat="30.85659000" lon="34.74543000">
        <ele>489.00000</ele>
        <time>2010-01-01T00:50:19Z</time>
      </trkpt>
      <trkpt lat="30.85628000" lon="34.74552000">
        <ele>490.00000</ele>
        <time>2010-01-01T00:50:31Z</time>
      </trkpt>
      <trkpt lat="30.85615000" lon="34.74554000">
        <ele>491.00000</ele>
        <time>2010-01-01T00:50:37Z</time>
      </trkpt>
      <trkpt lat="30.85580000" lon="34.74556000">
        <ele>490.00000</ele>
        <time>2010-01-01T00:50:51Z</time>
      </trkpt>
      <trkpt lat="30.85533000" lon="34.74549000">
        <ele>492.00000</ele>
        <time>2010-01-01T00:51:10Z</time>
      </trkpt>
      <trkpt lat="30.85526000" lon="34.74550000">
        <ele>493.00000</ele>
        <time>2010-01-01T00:51:13Z</time>
      </trkpt>
      <trkpt lat="30.85512000" lon="34.74556000">
        <ele>493.00000</ele>
        <time>2010-01-01T00:51:18Z</time>
      </trkpt>
      <trkpt lat="30.85500000" lon="34.74563000">
        <ele>494.00000</ele>
        <time>2010-01-01T00:51:24Z</time>
      </trkpt>
      <trkpt lat="30.85488000" lon="34.74566000">
        <ele>495.00000</ele>
        <time>2010-01-01T00:51:29Z</time>
      </trkpt>
      <trkpt lat="30.85458000" lon="34.74563000">
        <ele>500.00000</ele>
        <time>2010-01-01T00:51:41Z</time>
      </trkpt>
      <trkpt lat="30.85406000" lon="34.74548000">
        <ele>509.00000</ele>
        <time>2010-01-01T00:52:02Z</time>
      </trkpt>
      <trkpt lat="30.85383000" lon="34.74546000">
        <ele>511.00000</ele>
        <time>2010-01-01T00:52:11Z</time>
      </trkpt>
      <trkpt lat="30.85364000" lon="34.74549000">
        <ele>511.00000</ele>
        <time>2010-01-01T00:52:19Z</time>
      </trkpt>
      <trkpt lat="30.85352000" lon="34.74547000">
        <ele>511.00000</ele>
        <time>2010-01-01T00:52:24Z</time>
      </trkpt>
      <trkpt lat="30.85336000" lon="34.74537000">
        <ele>513.00000</ele>
        <time>2010-01-01T00:52:31Z</time>
      </trkpt>
      <trkpt lat="30.85302000" lon="34.74522000">
        <ele>516.00000</ele>
        <time>2010-01-01T00:52:46Z</time>
      </trkpt>
      <trkpt lat="30.85263000" lon="34.74514000">
        <ele>521.00000</ele>
        <time>2010-01-01T00:53:02Z</time>
      </trkpt>
      <trkpt lat="30.85221000" lon="34.74488000">
        <ele>523.00000</ele>
        <time>2010-01-01T00:53:21Z</time>
      </trkpt>
      <trkpt lat="30.85221000" lon="34.74487000">
        <ele>523.00000</ele>
        <time>2010-01-01T00:53:21Z</time>
      </trkpt>
      <trkpt lat="30.85210000" lon="34.74480000">
        <ele>523.00000</ele>
        <time>2010-01-01T00:53:26Z</time>
      </trkpt>
      <trkpt lat="30.85179000" lon="34.74466000">
        <ele>524.00000</ele>
        <time>2010-01-01T00:53:39Z</time>
      </trkpt>
      <trkpt lat="30.85169000" lon="34.74468000">
        <ele>525.00000</ele>
        <time>2010-01-01T00:53:43Z</time>
      </trkpt>
      <trkpt lat="30.85159000" lon="34.74478000">
        <ele>525.00000</ele>
        <time>2010-01-01T00:53:49Z</time>
      </trkpt>
      <trkpt lat="30.85145000" lon="34.74481000">
        <ele>523.00000</ele>
        <time>2010-01-01T00:53:54Z</time>
      </trkpt>
      <trkpt lat="30.85106000" lon="34.74499000">
        <ele>521.00000</ele>
        <time>2010-01-01T00:54:11Z</time>
      </trkpt>
      <trkpt lat="30.85075000" lon="34.74519000">
        <ele>520.00000</ele>
        <time>2010-01-01T00:54:25Z</time>
      </trkpt>
      <trkpt lat="30.85051000" lon="34.74539000">
        <ele>519.00000</ele>
        <time>2010-01-01T00:54:37Z</time>
      </trkpt>
      <trkpt lat="30.85029000" lon="34.74550000">
        <ele>516.00000</ele>
        <time>2010-01-01T00:54:47Z</time>
      </trkpt>
      <trkpt lat="30.85008000" lon="34.74565000">
        <ele>514.00000</ele>
        <time>2010-01-01T00:54:57Z</time>
      </trkpt>
      <trkpt lat="30.84988000" lon="34.74583000">
        <ele>513.00000</ele>
        <time>2010-01-01T00:55:07Z</time>
      </trkpt>
      <trkpt lat="30.84972000" lon="34.74602000">
        <ele>514.00000</ele>
        <time>2010-01-01T00:55:16Z</time>
      </trkpt>
      <trkpt lat="30.84957000" lon="34.74628000">
        <ele>513.00000</ele>
        <time>2010-01-01T00:55:27Z</time>
      </trkpt>
      <trkpt lat="30.84940000" lon="34.74648000">
        <ele>511.00000</ele>
        <time>2010-01-01T00:55:36Z</time>
      </trkpt>
      <trkpt lat="30.84935000" lon="34.74652000">
        <ele>510.00000</ele>
        <time>2010-01-01T00:55:39Z</time>
      </trkpt>
      <trkpt lat="30.84930000" lon="34.74653000">
        <ele>509.00000</ele>
        <time>2010-01-01T00:55:41Z</time>
      </trkpt>
      <trkpt lat="30.84923000" lon="34.74647000">
        <ele>508.00000</ele>
        <time>2010-01-01T00:55:44Z</time>
      </trkpt>
      <trkpt lat="30.84915000" lon="34.74634000">
        <ele>507.00000</ele>
        <time>2010-01-01T00:55:50Z</time>
      </trkpt>
      <trkpt lat="30.84898000" lon="34.74618000">
        <ele>506.00000</ele>
        <time>2010-01-01T00:55:59Z</time>
      </trkpt>
      <trkpt lat="30.84888000" lon="34.74615000">
        <ele>505.00000</ele>
        <time>2010-01-01T00:56:03Z</time>
      </trkpt>
      <trkpt lat="30.84862000" lon="34.74612000">
        <ele>504.00000</ele>
        <time>2010-01-01T00:56:13Z</time>
      </trkpt>
      <trkpt lat="30.84850000" lon="34.74608000">
        <ele>503.00000</ele>
        <time>2010-01-01T00:56:18Z</time>
      </trkpt>
      <trkpt lat="30.84816000" lon="34.74592000">
        <ele>501.00000</ele>
        <time>2010-01-01T00:56:33Z</time>
      </trkpt>
      <trkpt lat="30.84791000" lon="34.74577000">
        <ele>501.00000</ele>
        <time>2010-01-01T00:56:44Z</time>
      </trkpt>
      <trkpt lat="30.84776000" lon="34.74570000">
        <ele>502.00000</ele>
        <time>2010-01-01T00:56:51Z</time>
      </trkpt>
      <trkpt lat="30.84751000" lon="34.74569000">
        <ele>501.00000</ele>
        <time>2010-01-01T00:57:01Z</time>
      </trkpt>
      <trkpt lat="30.84743000" lon="34.74566000">
        <ele>501.00000</ele>
        <time>2010-01-01T00:57:04Z</time>
      </trkpt>
      <trkpt lat="30.84733000" lon="34.74558000">
        <ele>501.00000</ele>
        <time>2010-01-01T00:57:09Z</time>
      </trkpt>
      <trkpt lat="30.84714000" lon="34.74534000">
        <ele>500.00000</ele>
        <time>2010-01-01T00:57:20Z</time>
      </trkpt>
      <trkpt lat="30.84690000" lon="34.74498000">
        <ele>497.00000</ele>
        <time>2010-01-01T00:57:36Z</time>
      </trkpt>
      <trkpt lat="30.84652000" lon="34.74471000">
        <ele>494.00000</ele>
        <time>2010-01-01T00:57:53Z</time>
      </trkpt>
      <trkpt lat="30.84635000" lon="34.74449000">
        <ele>495.00000</ele>
        <time>2010-01-01T00:58:04Z</time>
      </trkpt>
      <trkpt lat="30.84630000" lon="34.74435000">
        <ele>494.00000</ele>
        <time>2010-01-01T00:58:09Z</time>
      </trkpt>
      <trkpt lat="30.84622000" lon="34.74374000">
        <ele>489.00000</ele>
        <time>2010-01-01T00:58:30Z</time>
      </trkpt>
      <trkpt lat="30.84614000" lon="34.74357000">
        <ele>488.00000</ele>
        <time>2010-01-01T00:58:37Z</time>
      </trkpt>
      <trkpt lat="30.84581000" lon="34.74309000">
        <ele>486.00000</ele>
        <time>2010-01-01T00:58:58Z</time>
      </trkpt>
      <trkpt lat="30.84574000" lon="34.74303000">
        <ele>486.00000</ele>
        <time>2010-01-01T00:59:01Z</time>
      </trkpt>
      <trkpt lat="30.84541000" lon="34.74280000">
        <ele>485.00000</ele>
        <time>2010-01-01T00:59:17Z</time>
      </trkpt>
      <trkpt lat="30.84518000" lon="34.74276000">
        <ele>484.00000</ele>
        <time>2010-01-01T00:59:26Z</time>
      </trkpt>
      <trkpt lat="30.84501000" lon="34.74307000">
        <ele>483.00000</ele>
        <time>2010-01-01T00:59:39Z</time>
      </trkpt>
      <trkpt lat="30.84486000" lon="34.74316000">
        <ele>483.00000</ele>
        <time>2010-01-01T00:59:45Z</time>
      </trkpt>
      <trkpt lat="30.84445000" lon="34.74340000">
        <ele>484.00000</ele>
        <time>2010-01-01T01:00:04Z</time>
      </trkpt>
      <trkpt lat="30.84439000" lon="34.74323000">
        <ele>483.00000</ele>
        <time>2010-01-01T01:00:10Z</time>
      </trkpt>
      <trkpt lat="30.84428000" lon="34.74307000">
        <ele>483.00000</ele>
        <time>2010-01-01T01:00:17Z</time>
      </trkpt>
      <trkpt lat="30.84424000" lon="34.74298000">
        <ele>483.00000</ele>
        <time>2010-01-01T01:00:21Z</time>
      </trkpt>
      <trkpt lat="30.84424000" lon="34.74281000">
        <ele>482.00000</ele>
        <time>2010-01-01T01:00:27Z</time>
      </trkpt>
      <trkpt lat="30.84434000" lon="34.74256000">
        <ele>481.00000</ele>
        <time>2010-01-01T01:00:36Z</time>
      </trkpt>
      <trkpt lat="30.84436000" lon="34.74244000">
        <ele>481.00000</ele>
        <time>2010-01-01T01:00:40Z</time>
      </trkpt>
      <trkpt lat="30.84435000" lon="34.74215000">
        <ele>482.00000</ele>
        <time>2010-01-01T01:00:50Z</time>
      </trkpt>
      <trkpt lat="30.84427000" lon="34.74169000">
        <ele>482.00000</ele>
        <time>2010-01-01T01:01:06Z</time>
      </trkpt>
      <trkpt lat="30.84418000" lon="34.74141000">
        <ele>483.00000</ele>
        <time>2010-01-01T01:01:17Z</time>
      </trkpt>
      <trkpt lat="30.84413000" lon="34.74131000">
        <ele>484.00000</ele>
        <time>2010-01-01T01:01:21Z</time>
      </trkpt>
      <trkpt lat="30.84390000" lon="34.74102000">
        <ele>485.00000</ele>
        <time>2010-01-01T01:01:34Z</time>
      </trkpt>
      <trkpt lat="30.84362000" lon="34.74060000">
        <ele>487.00000</ele>
        <time>2010-01-01T01:01:52Z</time>
      </trkpt>
      <trkpt lat="30.84344000" lon="34.74014000">
        <ele>485.00000</ele>
        <time>2010-01-01T01:02:10Z</time>
      </trkpt>
      <trkpt lat="30.84334000" lon="34.74001000">
        <ele>485.00000</ele>
        <time>2010-01-01T01:02:16Z</time>
      </trkpt>
      <trkpt lat="30.84273000" lon="34.73955000">
        <ele>490.00000</ele>
        <time>2010-01-01T01:02:45Z</time>
      </trkpt>
      <trkpt lat="30.84243000" lon="34.73913000">
        <ele>490.00000</ele>
        <time>2010-01-01T01:03:04Z</time>
      </trkpt>
      <trkpt lat="30.84288000" lon="34.73920000">
        <ele>489.00000</ele>
        <time>2010-01-01T01:03:22Z</time>
      </trkpt>
      <trkpt lat="30.84287000" lon="34.73920000">
        <ele>490.00000</ele>
        <time>2010-01-01T01:03:22Z</time>
      </trkpt>
      <trkpt lat="30.84190000" lon="34.73903000">
        <ele>488.00000</ele>
        <time>2010-01-01T01:04:01Z</time>
      </trkpt>
      <trkpt lat="30.84127000" lon="34.73887000">
        <ele>488.00000</ele>
        <time>2010-01-01T01:04:27Z</time>
      </trkpt>
      <trkpt lat="30.84106000" lon="34.73885000">
        <ele>490.00000</ele>
        <time>2010-01-01T01:04:36Z</time>
      </trkpt>
      <trkpt lat="30.84089000" lon="34.73881000">
        <ele>491.00000</ele>
        <time>2010-01-01T01:04:43Z</time>
      </trkpt>
      <trkpt lat="30.84062000" lon="34.73869000">
        <ele>491.00000</ele>
        <time>2010-01-01T01:04:54Z</time>
      </trkpt>
      <trkpt lat="30.84035000" lon="34.73860000">
        <ele>490.00000</ele>
        <time>2010-01-01T01:05:05Z</time>
      </trkpt>
      <trkpt lat="30.83996000" lon="34.73850000">
        <ele>490.00000</ele>
        <time>2010-01-01T01:05:21Z</time>
      </trkpt>
      <trkpt lat="30.83939000" lon="34.73832000">
        <ele>493.00000</ele>
        <time>2010-01-01T01:05:45Z</time>
      </trkpt>
      <trkpt lat="30.83861000" lon="34.73814000">
        <ele>491.00000</ele>
        <time>2010-01-01T01:06:17Z</time>
      </trkpt>
      <trkpt lat="30.83789000" lon="34.73789000">
        <ele>494.00000</ele>
        <time>2010-01-01T01:06:47Z</time>
      </trkpt>
      <trkpt lat="30.83764000" lon="34.73783000">
        <ele>496.00000</ele>
        <time>2010-01-01T01:06:57Z</time>
      </trkpt>
      <trkpt lat="30.83757000" lon="34.73777000">
        <ele>497.00000</ele>
        <time>2010-01-01T01:07:01Z</time>
      </trkpt>
      <trkpt lat="30.83749000" lon="34.73767000">
        <ele>498.00000</ele>
        <time>2010-01-01T01:07:05Z</time>
      </trkpt>
      <trkpt lat="30.83716000" lon="34.73735000">
        <ele>498.00000</ele>
        <time>2010-01-01T01:07:23Z</time>
      </trkpt>
      <trkpt lat="30.83701000" lon="34.73724000">
        <ele>497.00000</ele>
        <time>2010-01-01T01:07:30Z</time>
      </trkpt>
      <trkpt lat="30.83700000" lon="34.73724000">
        <ele>497.00000</ele>
        <time>2010-01-01T01:07:30Z</time>
      </trkpt>
      <trkpt lat="30.83693000" lon="34.73718000">
        <ele>497.00000</ele>
        <time>2010-01-01T01:07:34Z</time>
      </trkpt>
      <trkpt lat="30.83634000" lon="34.73658000">
        <ele>502.00000</ele>
        <time>2010-01-01T01:08:05Z</time>
      </trkpt>
      <trkpt lat="30.83623000" lon="34.73641000">
        <ele>502.00000</ele>
        <time>2010-01-01T01:08:12Z</time>
      </trkpt>
      <trkpt lat="30.83583000" lon="34.73604000">
        <ele>504.00000</ele>
        <time>2010-01-01T01:08:33Z</time>
      </trkpt>
      <trkpt lat="30.83556000" lon="34.73582000">
        <ele>504.00000</ele>
        <time>2010-01-01T01:08:46Z</time>
      </trkpt>
      <trkpt lat="30.83535000" lon="34.73560000">
        <ele>504.00000</ele>
        <time>2010-01-01T01:08:57Z</time>
      </trkpt>
      <trkpt lat="30.83487000" lon="34.73506000">
        <ele>506.00000</ele>
        <time>2010-01-01T01:09:24Z</time>
      </trkpt>
      <trkpt lat="30.83450000" lon="34.73471000">
        <ele>509.00000</ele>
        <time>2010-01-01T01:09:43Z</time>
      </trkpt>
      <trkpt lat="30.83435000" lon="34.73455000">
        <ele>509.00000</ele>
        <time>2010-01-01T01:09:51Z</time>
      </trkpt>
      <trkpt lat="30.83416000" lon="34.73441000">
        <ele>510.00000</ele>
        <time>2010-01-01T01:10:00Z</time>
      </trkpt>
      <trkpt lat="30.83405000" lon="34.73417000">
        <ele>509.00000</ele>
        <time>2010-01-01T01:10:09Z</time>
      </trkpt>
      <trkpt lat="30.83391000" lon="34.73401000">
        <ele>508.00000</ele>
        <time>2010-01-01T01:10:17Z</time>
      </trkpt>
      <trkpt lat="30.83321000" lon="34.73340000">
        <ele>510.00000</ele>
        <time>2010-01-01T01:10:52Z</time>
      </trkpt>
      <trkpt lat="30.83285000" lon="34.73306000">
        <ele>511.00000</ele>
        <time>2010-01-01T01:11:11Z</time>
      </trkpt>
      <trkpt lat="30.83205000" lon="34.73241000">
        <ele>512.00000</ele>
        <time>2010-01-01T01:11:50Z</time>
      </trkpt>
      <trkpt lat="30.83181000" lon="34.73215000">
        <ele>514.00000</ele>
        <time>2010-01-01T01:12:03Z</time>
      </trkpt>
      <trkpt lat="30.83142000" lon="34.73179000">
        <ele>517.00000</ele>
        <time>2010-01-01T01:12:23Z</time>
      </trkpt>
      <trkpt lat="30.83097000" lon="34.73144000">
        <ele>518.00000</ele>
        <time>2010-01-01T01:12:45Z</time>
      </trkpt>
      <trkpt lat="30.83064000" lon="34.73110000">
        <ele>518.00000</ele>
        <time>2010-01-01T01:13:02Z</time>
      </trkpt>
      <trkpt lat="30.83057000" lon="34.73098000">
        <ele>518.00000</ele>
        <time>2010-01-01T01:13:07Z</time>
      </trkpt>
      <trkpt lat="30.83002000" lon="34.73109000">
        <ele>517.00000</ele>
        <time>2010-01-01T01:13:30Z</time>
      </trkpt>
      <trkpt lat="30.82934000" lon="34.73050000">
        <ele>521.00000</ele>
        <time>2010-01-01T01:14:04Z</time>
      </trkpt>
      <trkpt lat="30.82926000" lon="34.73046000">
        <ele>521.00000</ele>
        <time>2010-01-01T01:14:07Z</time>
      </trkpt>
      <trkpt lat="30.82897000" lon="34.73051000">
        <ele>521.00000</ele>
        <time>2010-01-01T01:14:19Z</time>
      </trkpt>
      <trkpt lat="30.82884000" lon="34.73043000">
        <ele>521.00000</ele>
        <time>2010-01-01T01:14:25Z</time>
      </trkpt>
      <trkpt lat="30.82869000" lon="34.73031000">
        <ele>524.00000</ele>
        <time>2010-01-01T01:14:32Z</time>
      </trkpt>
      <trkpt lat="30.82841000" lon="34.73020000">
        <ele>525.00000</ele>
        <time>2010-01-01T01:14:44Z</time>
      </trkpt>
      <trkpt lat="30.82837000" lon="34.73015000">
        <ele>526.00000</ele>
        <time>2010-01-01T01:14:46Z</time>
      </trkpt>
      <trkpt lat="30.82836000" lon="34.73015000">
        <ele>526.00000</ele>
        <time>2010-01-01T01:14:47Z</time>
      </trkpt>
      <trkpt lat="30.82814000" lon="34.72981000">
        <ele>526.00000</ele>
        <time>2010-01-01T01:15:01Z</time>
      </trkpt>
      <trkpt lat="30.82794000" lon="34.72957000">
        <ele>526.00000</ele>
        <time>2010-01-01T01:15:13Z</time>
      </trkpt>
      <trkpt lat="30.82772000" lon="34.72935000">
        <ele>528.00000</ele>
        <time>2010-01-01T01:15:24Z</time>
      </trkpt>
      <trkpt lat="30.82748000" lon="34.72916000">
        <ele>532.00000</ele>
        <time>2010-01-01T01:15:36Z</time>
      </trkpt>
      <trkpt lat="30.82739000" lon="34.72913000">
        <ele>532.00000</ele>
        <time>2010-01-01T01:15:40Z</time>
      </trkpt>
      <trkpt lat="30.82728000" lon="34.72906000">
        <ele>532.00000</ele>
        <time>2010-01-01T01:15:45Z</time>
      </trkpt>
      <trkpt lat="30.82714000" lon="34.72914000">
        <ele>532.00000</ele>
        <time>2010-01-01T01:15:51Z</time>
      </trkpt>
      <trkpt lat="30.82678000" lon="34.72931000">
        <ele>535.00000</ele>
        <time>2010-01-01T01:16:06Z</time>
      </trkpt>
      <trkpt lat="30.82633000" lon="34.72943000">
        <ele>533.00000</ele>
        <time>2010-01-01T01:16:25Z</time>
      </trkpt>
      <trkpt lat="30.82599000" lon="34.72944000">
        <ele>533.00000</ele>
        <time>2010-01-01T01:16:39Z</time>
      </trkpt>
      <trkpt lat="30.82592000" lon="34.72942000">
        <ele>534.00000</ele>
        <time>2010-01-01T01:16:41Z</time>
      </trkpt>
      <trkpt lat="30.82576000" lon="34.72933000">
        <ele>535.00000</ele>
        <time>2010-01-01T01:16:49Z</time>
      </trkpt>
      <trkpt lat="30.82530000" lon="34.72920000">
        <ele>536.00000</ele>
        <time>2010-01-01T01:17:07Z</time>
      </trkpt>
      <trkpt lat="30.82511000" lon="34.72920000">
        <ele>537.00000</ele>
        <time>2010-01-01T01:17:15Z</time>
      </trkpt>
      <trkpt lat="30.82497000" lon="34.72918000">
        <ele>538.00000</ele>
        <time>2010-01-01T01:17:21Z</time>
      </trkpt>
      <trkpt lat="30.82461000" lon="34.72893000">
        <ele>541.00000</ele>
        <time>2010-01-01T01:17:37Z</time>
      </trkpt>
      <trkpt lat="30.82467000" lon="34.72939000">
        <ele>541.00000</ele>
        <time>2010-01-01T01:17:53Z</time>
      </trkpt>
      <trkpt lat="30.82465000" lon="34.72971000">
        <ele>543.00000</ele>
        <time>2010-01-01T01:18:05Z</time>
      </trkpt>
      <trkpt lat="30.82464000" lon="34.72976000">
        <ele>544.00000</ele>
        <time>2010-01-01T01:18:06Z</time>
      </trkpt>
      <trkpt lat="30.82457000" lon="34.72982000">
        <ele>545.00000</ele>
        <time>2010-01-01T01:18:10Z</time>
      </trkpt>
      <trkpt lat="30.82448000" lon="34.72981000">
        <ele>546.00000</ele>
        <time>2010-01-01T01:18:13Z</time>
      </trkpt>
      <trkpt lat="30.82417000" lon="34.72961000">
        <ele>550.00000</ele>
        <time>2010-01-01T01:18:28Z</time>
      </trkpt>
      <trkpt lat="30.82410000" lon="34.72954000">
        <ele>551.00000</ele>
        <time>2010-01-01T01:18:31Z</time>
      </trkpt>
      <trkpt lat="30.82392000" lon="34.72921000">
        <ele>551.00000</ele>
        <time>2010-01-01T01:18:45Z</time>
      </trkpt>
      <trkpt lat="30.82387000" lon="34.72917000">
        <ele>552.00000</ele>
        <time>2010-01-01T01:18:47Z</time>
      </trkpt>
      <trkpt lat="30.82380000" lon="34.72917000">
        <ele>552.00000</ele>
        <time>2010-01-01T01:18:50Z</time>
      </trkpt>
      <trkpt lat="30.82373000" lon="34.72922000">
        <ele>554.00000</ele>
        <time>2010-01-01T01:18:53Z</time>
      </trkpt>
      <trkpt lat="30.82368000" lon="34.72928000">
        <ele>554.00000</ele>
        <time>2010-01-01T01:18:56Z</time>
      </trkpt>
      <trkpt lat="30.82358000" lon="34.72966000">
        <ele>559.00000</ele>
        <time>2010-01-01T01:19:10Z</time>
      </trkpt>
      <trkpt lat="30.82351000" lon="34.72975000">
        <ele>560.00000</ele>
        <time>2010-01-01T01:19:14Z</time>
      </trkpt>
      <trkpt lat="30.82345000" lon="34.72978000">
        <ele>561.00000</ele>
        <time>2010-01-01T01:19:17Z</time>
      </trkpt>
      <trkpt lat="30.82327000" lon="34.72979000">
        <ele>563.00000</ele>
        <time>2010-01-01T01:19:24Z</time>
      </trkpt>
      <trkpt lat="30.82316000" lon="34.72985000">
        <ele>564.00000</ele>
        <time>2010-01-01T01:19:29Z</time>
      </trkpt>
      <trkpt lat="30.82302000" lon="34.73001000">
        <ele>565.00000</ele>
        <time>2010-01-01T01:19:36Z</time>
      </trkpt>
      <trkpt lat="30.82285000" lon="34.73005000">
        <ele>567.00000</ele>
        <time>2010-01-01T01:19:43Z</time>
      </trkpt>
      <trkpt lat="30.82259000" lon="34.73001000">
        <ele>571.00000</ele>
        <time>2010-01-01T01:19:54Z</time>
      </trkpt>
      <trkpt lat="30.82249000" lon="34.72997000">
        <ele>572.00000</ele>
        <time>2010-01-01T01:19:58Z</time>
      </trkpt>
      <trkpt lat="30.82241000" lon="34.72992000">
        <ele>573.00000</ele>
        <time>2010-01-01T01:20:02Z</time>
      </trkpt>
      <trkpt lat="30.82237000" lon="34.72988000">
        <ele>573.00000</ele>
        <time>2010-01-01T01:20:04Z</time>
      </trkpt>
      <trkpt lat="30.82224000" lon="34.72961000">
        <ele>572.00000</ele>
        <time>2010-01-01T01:20:15Z</time>
      </trkpt>
      <trkpt lat="30.82204000" lon="34.72935000">
        <ele>574.00000</ele>
        <time>2010-01-01T01:20:27Z</time>
      </trkpt>
      <trkpt lat="30.82183000" lon="34.72923000">
        <ele>577.00000</ele>
        <time>2010-01-01T01:20:36Z</time>
      </trkpt>
      <trkpt lat="30.82174000" lon="34.72924000">
        <ele>578.00000</ele>
        <time>2010-01-01T01:20:40Z</time>
      </trkpt>
      <trkpt lat="30.82166000" lon="34.72931000">
        <ele>579.00000</ele>
        <time>2010-01-01T01:20:44Z</time>
      </trkpt>
      <trkpt lat="30.82161000" lon="34.72939000">
        <ele>579.00000</ele>
        <time>2010-01-01T01:20:47Z</time>
      </trkpt>
      <trkpt lat="30.82145000" lon="34.72974000">
        <ele>584.00000</ele>
        <time>2010-01-01T01:21:01Z</time>
      </trkpt>
      <trkpt lat="30.82137000" lon="34.73000000">
        <ele>585.00000</ele>
        <time>2010-01-01T01:21:10Z</time>
      </trkpt>
      <trkpt lat="30.82130000" lon="34.73011000">
        <ele>585.00000</ele>
        <time>2010-01-01T01:21:15Z</time>
      </trkpt>
      <trkpt lat="30.82112000" lon="34.73029000">
        <ele>587.00000</ele>
        <time>2010-01-01T01:21:24Z</time>
      </trkpt>
      <trkpt lat="30.82095000" lon="34.73037000">
        <ele>589.00000</ele>
        <time>2010-01-01T01:21:32Z</time>
      </trkpt>
      <trkpt lat="30.82090000" lon="34.73037000">
        <ele>589.00000</ele>
        <time>2010-01-01T01:21:34Z</time>
      </trkpt>
      <trkpt lat="30.82084000" lon="34.73032000">
        <ele>590.00000</ele>
        <time>2010-01-01T01:21:37Z</time>
      </trkpt>
      <trkpt lat="30.82069000" lon="34.73008000">
        <ele>591.00000</ele>
        <time>2010-01-01T01:21:47Z</time>
      </trkpt>
      <trkpt lat="30.82052000" lon="34.72989000">
        <ele>593.00000</ele>
        <time>2010-01-01T01:21:56Z</time>
      </trkpt>
      <trkpt lat="30.82003000" lon="34.72956000">
        <ele>598.00000</ele>
        <time>2010-01-01T01:22:19Z</time>
      </trkpt>
      <trkpt lat="30.81991000" lon="34.72939000">
        <ele>598.00000</ele>
        <time>2010-01-01T01:22:26Z</time>
      </trkpt>
      <trkpt lat="30.81982000" lon="34.72930000">
        <ele>599.00000</ele>
        <time>2010-01-01T01:22:31Z</time>
      </trkpt>
      <trkpt lat="30.81956000" lon="34.72910000">
        <ele>601.00000</ele>
        <time>2010-01-01T01:22:44Z</time>
      </trkpt>
      <trkpt lat="30.81932000" lon="34.72900000">
        <ele>603.00000</ele>
        <time>2010-01-01T01:22:54Z</time>
      </trkpt>
      <trkpt lat="30.81920000" lon="34.72899000">
        <ele>605.00000</ele>
        <time>2010-01-01T01:22:59Z</time>
      </trkpt>
      <trkpt lat="30.81892000" lon="34.72901000">
        <ele>608.00000</ele>
        <time>2010-01-01T01:23:10Z</time>
      </trkpt>
      <trkpt lat="30.81876000" lon="34.72899000">
        <ele>610.00000</ele>
        <time>2010-01-01T01:23:16Z</time>
      </trkpt>
      <trkpt lat="30.81846000" lon="34.72892000">
        <ele>611.00000</ele>
        <time>2010-01-01T01:23:29Z</time>
      </trkpt>
      <trkpt lat="30.81839000" lon="34.72893000">
        <ele>612.00000</ele>
        <time>2010-01-01T01:23:31Z</time>
      </trkpt>
      <trkpt lat="30.81797000" lon="34.72917000">
        <ele>616.00000</ele>
        <time>2010-01-01T01:23:50Z</time>
      </trkpt>
      <trkpt lat="30.81790000" lon="34.72923000">
        <ele>617.00000</ele>
        <time>2010-01-01T01:23:54Z</time>
      </trkpt>
      <trkpt lat="30.81772000" lon="34.72946000">
        <ele>620.00000</ele>
        <time>2010-01-01T01:24:04Z</time>
      </trkpt>
      <trkpt lat="30.81764000" lon="34.72952000">
        <ele>619.00000</ele>
        <time>2010-01-01T01:24:08Z</time>
      </trkpt>
      <trkpt lat="30.81747000" lon="34.72960000">
        <ele>617.00000</ele>
        <time>2010-01-01T01:24:15Z</time>
      </trkpt>
      <trkpt lat="30.81710000" lon="34.72995000">
        <ele>622.00000</ele>
        <time>2010-01-01T01:24:35Z</time>
      </trkpt>
      <trkpt lat="30.81703000" lon="34.72992000">
        <ele>621.00000</ele>
        <time>2010-01-01T01:24:38Z</time>
      </trkpt>
      <trkpt lat="30.81702000" lon="34.72992000">
        <ele>621.00000</ele>
        <time>2010-01-01T01:24:38Z</time>
      </trkpt>
      <trkpt lat="30.81710000" lon="34.72995000">
        <ele>622.00000</ele>
        <time>2010-01-01T01:24:41Z</time>
      </trkpt>
      <trkpt lat="30.81710000" lon="34.73015000">
        <ele>624.00000</ele>
        <time>2010-01-01T01:24:48Z</time>
      </trkpt>
      <trkpt lat="30.81718000" lon="34.73034000">
        <ele>627.00000</ele>
        <time>2010-01-01T01:24:55Z</time>
      </trkpt>
      <trkpt lat="30.81722000" lon="34.73040000">
        <ele>628.00000</ele>
        <time>2010-01-01T01:24:58Z</time>
      </trkpt>
      <trkpt lat="30.81724000" lon="34.73048000">
        <ele>629.00000</ele>
        <time>2010-01-01T01:25:01Z</time>
      </trkpt>
      <trkpt lat="30.81722000" lon="34.73099000">
        <ele>630.00000</ele>
        <time>2010-01-01T01:25:18Z</time>
      </trkpt>
      <trkpt lat="30.81718000" lon="34.73119000">
        <ele>629.00000</ele>
        <time>2010-01-01T01:25:26Z</time>
      </trkpt>
      <trkpt lat="30.81753000" lon="34.73135000">
        <ele>630.00000</ele>
        <time>2010-01-01T01:25:41Z</time>
      </trkpt>
      <trkpt lat="30.81764000" lon="34.73146000">
        <ele>629.00000</ele>
        <time>2010-01-01T01:25:46Z</time>
      </trkpt>
      <trkpt lat="30.81771000" lon="34.73160000">
        <ele>628.00000</ele>
        <time>2010-01-01T01:25:52Z</time>
      </trkpt>
      <trkpt lat="30.81784000" lon="34.73180000">
        <ele>627.00000</ele>
        <time>2010-01-01T01:26:01Z</time>
      </trkpt>
      <trkpt lat="30.81794000" lon="34.73193000">
        <ele>627.00000</ele>
        <time>2010-01-01T01:26:07Z</time>
      </trkpt>
      <trkpt lat="30.81818000" lon="34.73217000">
        <ele>628.00000</ele>
        <time>2010-01-01T01:26:19Z</time>
      </trkpt>
      <trkpt lat="30.81820000" lon="34.73221000">
        <ele>629.00000</ele>
        <time>2010-01-01T01:26:21Z</time>
      </trkpt>
      <trkpt lat="30.81824000" lon="34.73280000">
        <ele>626.00000</ele>
        <time>2010-01-01T01:26:41Z</time>
      </trkpt>
      <trkpt lat="30.81833000" lon="34.73337000">
        <ele>627.00000</ele>
        <time>2010-01-01T01:27:01Z</time>
      </trkpt>
      <trkpt lat="30.81837000" lon="34.73413000">
        <ele>625.00000</ele>
        <time>2010-01-01T01:27:27Z</time>
      </trkpt>
      <trkpt lat="30.81841000" lon="34.73459000">
        <ele>624.00000</ele>
        <time>2010-01-01T01:27:43Z</time>
      </trkpt>
      <trkpt lat="30.81846000" lon="34.73474000">
        <ele>624.00000</ele>
        <time>2010-01-01T01:27:49Z</time>
      </trkpt>
      <trkpt lat="30.81846000" lon="34.73487000">
        <ele>624.00000</ele>
        <time>2010-01-01T01:27:53Z</time>
      </trkpt>
      <trkpt lat="30.81842000" lon="34.73494000">
        <ele>624.00000</ele>
        <time>2010-01-01T01:27:56Z</time>
      </trkpt>
      <trkpt lat="30.81846000" lon="34.73487000">
        <ele>624.00000</ele>
        <time>2010-01-01T01:27:59Z</time>
      </trkpt>
      <trkpt lat="30.81846000" lon="34.73474000">
        <ele>624.00000</ele>
        <time>2010-01-01T01:28:03Z</time>
      </trkpt>
      <trkpt lat="30.81861000" lon="34.73498000">
        <ele>624.00000</ele>
        <time>2010-01-01T01:28:14Z</time>
      </trkpt>
      <trkpt lat="30.81874000" lon="34.73512000">
        <ele>624.00000</ele>
        <time>2010-01-01T01:28:21Z</time>
      </trkpt>
      <trkpt lat="30.81899000" lon="34.73528000">
        <ele>624.00000</ele>
        <time>2010-01-01T01:28:32Z</time>
      </trkpt>
      <trkpt lat="30.81912000" lon="34.73543000">
        <ele>624.00000</ele>
        <time>2010-01-01T01:28:39Z</time>
      </trkpt>
      <trkpt lat="30.81913000" lon="34.73559000">
        <ele>624.00000</ele>
        <time>2010-01-01T01:28:45Z</time>
      </trkpt>
      <trkpt lat="30.81911000" lon="34.73584000">
        <ele>624.00000</ele>
        <time>2010-01-01T01:28:54Z</time>
      </trkpt>
      <trkpt lat="30.81899000" lon="34.73619000">
        <ele>622.00000</ele>
        <time>2010-01-01T01:29:07Z</time>
      </trkpt>
      <trkpt lat="30.81896000" lon="34.73648000">
        <ele>619.00000</ele>
        <time>2010-01-01T01:29:17Z</time>
      </trkpt>
      <trkpt lat="30.81898000" lon="34.73660000">
        <ele>618.00000</ele>
        <time>2010-01-01T01:29:21Z</time>
      </trkpt>
      <trkpt lat="30.81908000" lon="34.73677000">
        <ele>616.00000</ele>
        <time>2010-01-01T01:29:28Z</time>
      </trkpt>
      <trkpt lat="30.81923000" lon="34.73690000">
        <ele>615.00000</ele>
        <time>2010-01-01T01:29:35Z</time>
      </trkpt>
      <trkpt lat="30.81939000" lon="34.73697000">
        <ele>614.00000</ele>
        <time>2010-01-01T01:29:42Z</time>
      </trkpt>
      <trkpt lat="30.81950000" lon="34.73700000">
        <ele>614.00000</ele>
        <time>2010-01-01T01:29:47Z</time>
      </trkpt>
      <trkpt lat="30.81956000" lon="34.73704000">
        <ele>614.00000</ele>
        <time>2010-01-01T01:29:49Z</time>
      </trkpt>
      <trkpt lat="30.81973000" lon="34.73711000">
        <ele>614.00000</ele>
        <time>2010-01-01T01:29:57Z</time>
      </trkpt>
      <trkpt lat="30.81987000" lon="34.73723000">
        <ele>613.00000</ele>
        <time>2010-01-01T01:30:04Z</time>
      </trkpt>
      <trkpt lat="30.82016000" lon="34.73755000">
        <ele>611.00000</ele>
        <time>2010-01-01T01:30:20Z</time>
      </trkpt>
      <trkpt lat="30.82024000" lon="34.73769000">
        <ele>611.00000</ele>
        <time>2010-01-01T01:30:25Z</time>
      </trkpt>
      <trkpt lat="30.82029000" lon="34.73775000">
        <ele>612.00000</ele>
        <time>2010-01-01T01:30:28Z</time>
      </trkpt>
      <trkpt lat="30.82039000" lon="34.73792000">
        <ele>613.00000</ele>
        <time>2010-01-01T01:30:35Z</time>
      </trkpt>
      <trkpt lat="30.82047000" lon="34.73801000">
        <ele>614.00000</ele>
        <time>2010-01-01T01:30:40Z</time>
      </trkpt>
      <trkpt lat="30.82058000" lon="34.73812000">
        <ele>616.00000</ele>
        <time>2010-01-01T01:30:46Z</time>
      </trkpt>
      <trkpt lat="30.82074000" lon="34.73818000">
        <ele>617.00000</ele>
        <time>2010-01-01T01:30:52Z</time>
      </trkpt>
      <trkpt lat="30.82083000" lon="34.73826000">
        <ele>618.00000</ele>
        <time>2010-01-01T01:30:57Z</time>
      </trkpt>
      <trkpt lat="30.82088000" lon="34.73837000">
        <ele>618.00000</ele>
        <time>2010-01-01T01:31:01Z</time>
      </trkpt>
      <trkpt lat="30.82102000" lon="34.73849000">
        <ele>618.00000</ele>
        <time>2010-01-01T01:31:08Z</time>
      </trkpt>
      <trkpt lat="30.82108000" lon="34.73859000">
        <ele>618.00000</ele>
        <time>2010-01-01T01:31:12Z</time>
      </trkpt>
      <trkpt lat="30.82125000" lon="34.73882000">
        <ele>616.00000</ele>
        <time>2010-01-01T01:31:23Z</time>
      </trkpt>
      <trkpt lat="30.82157000" lon="34.73915000">
        <ele>614.00000</ele>
        <time>2010-01-01T01:31:40Z</time>
      </trkpt>
      <trkpt lat="30.82185000" lon="34.73948000">
        <ele>612.00000</ele>
        <time>2010-01-01T01:31:56Z</time>
      </trkpt>
      <trkpt lat="30.82204000" lon="34.73966000">
        <ele>609.00000</ele>
        <time>2010-01-01T01:32:06Z</time>
      </trkpt>
      <trkpt lat="30.82222000" lon="34.73979000">
        <ele>608.00000</ele>
        <time>2010-01-01T01:32:14Z</time>
      </trkpt>
      <trkpt lat="30.82229000" lon="34.73983000">
        <ele>606.00000</ele>
        <time>2010-01-01T01:32:17Z</time>
      </trkpt>
      <trkpt lat="30.82236000" lon="34.73991000">
        <ele>606.00000</ele>
        <time>2010-01-01T01:32:21Z</time>
      </trkpt>
      <trkpt lat="30.82243000" lon="34.73995000">
        <ele>605.00000</ele>
        <time>2010-01-01T01:32:24Z</time>
      </trkpt>
      <trkpt lat="30.82252000" lon="34.74008000">
        <ele>605.00000</ele>
        <time>2010-01-01T01:32:30Z</time>
      </trkpt>
      <trkpt lat="30.82267000" lon="34.74018000">
        <ele>605.00000</ele>
        <time>2010-01-01T01:32:37Z</time>
      </trkpt>
      <trkpt lat="30.82274000" lon="34.74027000">
        <ele>605.00000</ele>
        <time>2010-01-01T01:32:41Z</time>
      </trkpt>
      <trkpt lat="30.82287000" lon="34.74034000">
        <ele>603.00000</ele>
        <time>2010-01-01T01:32:47Z</time>
      </trkpt>
      <trkpt lat="30.82293000" lon="34.74040000">
        <ele>602.00000</ele>
        <time>2010-01-01T01:32:50Z</time>
      </trkpt>
      <trkpt lat="30.82299000" lon="34.74055000">
        <ele>601.00000</ele>
        <time>2010-01-01T01:32:56Z</time>
      </trkpt>
      <trkpt lat="30.82325000" lon="34.74076000">
        <ele>599.00000</ele>
        <time>2010-01-01T01:33:08Z</time>
      </trkpt>
      <trkpt lat="30.82333000" lon="34.74085000">
        <ele>599.00000</ele>
        <time>2010-01-01T01:33:13Z</time>
      </trkpt>
      <trkpt lat="30.82354000" lon="34.74099000">
        <ele>597.00000</ele>
        <time>2010-01-01T01:33:23Z</time>
      </trkpt>
      <trkpt lat="30.82365000" lon="34.74111000">
        <ele>596.00000</ele>
        <time>2010-01-01T01:33:29Z</time>
      </trkpt>
      <trkpt lat="30.82370000" lon="34.74131000">
        <ele>594.00000</ele>
        <time>2010-01-01T01:33:36Z</time>
      </trkpt>
      <trkpt lat="30.82375000" lon="34.74136000">
        <ele>594.00000</ele>
        <time>2010-01-01T01:33:38Z</time>
      </trkpt>
      <trkpt lat="30.82381000" lon="34.74146000">
        <ele>593.00000</ele>
        <time>2010-01-01T01:33:43Z</time>
      </trkpt>
      <trkpt lat="30.82392000" lon="34.74173000">
        <ele>590.00000</ele>
        <time>2010-01-01T01:33:53Z</time>
      </trkpt>
      <trkpt lat="30.82399000" lon="34.74182000">
        <ele>588.00000</ele>
        <time>2010-01-01T01:33:57Z</time>
      </trkpt>
      <trkpt lat="30.82409000" lon="34.74200000">
        <ele>586.00000</ele>
        <time>2010-01-01T01:34:04Z</time>
      </trkpt>
      <trkpt lat="30.82413000" lon="34.74216000">
        <ele>585.00000</ele>
        <time>2010-01-01T01:34:10Z</time>
      </trkpt>
      <trkpt lat="30.82444000" lon="34.74263000">
        <ele>583.00000</ele>
        <time>2010-01-01T01:34:30Z</time>
      </trkpt>
      <trkpt lat="30.82456000" lon="34.74271000">
        <ele>581.00000</ele>
        <time>2010-01-01T01:34:36Z</time>
      </trkpt>
      <trkpt lat="30.82475000" lon="34.74290000">
        <ele>578.00000</ele>
        <time>2010-01-01T01:34:46Z</time>
      </trkpt>
      <trkpt lat="30.82491000" lon="34.74300000">
        <ele>577.00000</ele>
        <time>2010-01-01T01:34:53Z</time>
      </trkpt>
      <trkpt lat="30.82508000" lon="34.74304000">
        <ele>576.00000</ele>
        <time>2010-01-01T01:35:00Z</time>
      </trkpt>
      <trkpt lat="30.82526000" lon="34.74305000">
        <ele>574.00000</ele>
        <time>2010-01-01T01:35:07Z</time>
      </trkpt>
      <trkpt lat="30.82556000" lon="34.74319000">
        <ele>568.00000</ele>
        <time>2010-01-01T01:35:20Z</time>
      </trkpt>
      <trkpt lat="30.82563000" lon="34.74320000">
        <ele>568.00000</ele>
        <time>2010-01-01T01:35:23Z</time>
      </trkpt>
      <trkpt lat="30.82573000" lon="34.74326000">
        <ele>566.00000</ele>
        <time>2010-01-01T01:35:28Z</time>
      </trkpt>
      <trkpt lat="30.82578000" lon="34.74331000">
        <ele>565.00000</ele>
        <time>2010-01-01T01:35:30Z</time>
      </trkpt>
      <trkpt lat="30.82581000" lon="34.74339000">
        <ele>565.00000</ele>
        <time>2010-01-01T01:35:33Z</time>
      </trkpt>
      <trkpt lat="30.82586000" lon="34.74363000">
        <ele>563.00000</ele>
        <time>2010-01-01T01:35:42Z</time>
      </trkpt>
      <trkpt lat="30.82603000" lon="34.74414000">
        <ele>562.00000</ele>
        <time>2010-01-01T01:36:01Z</time>
      </trkpt>
      <trkpt lat="30.82610000" lon="34.74446000">
        <ele>561.00000</ele>
        <time>2010-01-01T01:36:12Z</time>
      </trkpt>
      <trkpt lat="30.82614000" lon="34.74479000">
        <ele>561.00000</ele>
        <time>2010-01-01T01:36:23Z</time>
      </trkpt>
      <trkpt lat="30.82615000" lon="34.74530000">
        <ele>559.00000</ele>
        <time>2010-01-01T01:36:41Z</time>
      </trkpt>
      <trkpt lat="30.82603000" lon="34.74604000">
        <ele>551.00000</ele>
        <time>2010-01-01T01:37:07Z</time>
      </trkpt>
      <trkpt lat="30.82606000" lon="34.74633000">
        <ele>550.00000</ele>
        <time>2010-01-01T01:37:17Z</time>
      </trkpt>
      <trkpt lat="30.82622000" lon="34.74684000">
        <ele>546.00000</ele>
        <time>2010-01-01T01:37:36Z</time>
      </trkpt>
      <trkpt lat="30.82625000" lon="34.74700000">
        <ele>545.00000</ele>
        <time>2010-01-01T01:37:41Z</time>
      </trkpt>
      <trkpt lat="30.82631000" lon="34.74711000">
        <ele>544.00000</ele>
        <time>2010-01-01T01:37:46Z</time>
      </trkpt>
      <trkpt lat="30.82638000" lon="34.74720000">
        <ele>543.00000</ele>
        <time>2010-01-01T01:37:50Z</time>
      </trkpt>
      <trkpt lat="30.82649000" lon="34.74730000">
        <ele>541.00000</ele>
        <time>2010-01-01T01:37:55Z</time>
      </trkpt>
      <trkpt lat="30.82665000" lon="34.74740000">
        <ele>540.00000</ele>
        <time>2010-01-01T01:38:03Z</time>
      </trkpt>
      <trkpt lat="30.82685000" lon="34.74758000">
        <ele>538.00000</ele>
        <time>2010-01-01T01:38:13Z</time>
      </trkpt>
      <trkpt lat="30.82694000" lon="34.74771000">
        <ele>538.00000</ele>
        <time>2010-01-01T01:38:19Z</time>
      </trkpt>
      <trkpt lat="30.82744000" lon="34.74705000">
        <ele>536.00000</ele>
        <time>2010-01-01T01:38:49Z</time>
      </trkpt>
      <trkpt lat="30.82821000" lon="34.74557000">
        <ele>541.00000</ele>
        <time>2010-01-01T01:39:48Z</time>
      </trkpt>
      <trkpt lat="30.82958000" lon="34.74189000">
        <ele>531.00000</ele>
        <time>2010-01-01T01:42:06Z</time>
      </trkpt>
      <trkpt lat="30.83000000" lon="34.74085000">
        <ele>524.00000</ele>
        <time>2010-01-01T01:42:46Z</time>
      </trkpt>
      <trkpt lat="30.83054000" lon="34.74009000">
        <ele>521.00000</ele>
        <time>2010-01-01T01:43:20Z</time>
      </trkpt>
      <trkpt lat="30.83070000" lon="34.74020000">
        <ele>519.00000</ele>
        <time>2010-01-01T01:43:27Z</time>
      </trkpt>
      <trkpt lat="30.83085000" lon="34.74034000">
        <ele>518.00000</ele>
        <time>2010-01-01T01:43:35Z</time>
      </trkpt>
      <trkpt lat="30.83089000" lon="34.74041000">
        <ele>517.00000</ele>
        <time>2010-01-01T01:43:38Z</time>
      </trkpt>
      <trkpt lat="30.83095000" lon="34.74043000">
        <ele>517.00000</ele>
        <time>2010-01-01T01:43:40Z</time>
      </trkpt>
      <trkpt lat="30.83361000" lon="34.74292000">
        <ele>503.00000</ele>
        <time>2010-01-01T01:45:57Z</time>
      </trkpt>
      <trkpt lat="30.83722000" lon="34.74599000">
        <ele>491.00000</ele>
        <time>2010-01-01T01:48:56Z</time>
      </trkpt>
      <trkpt lat="30.83851000" lon="34.74599000">
        <ele>490.00000</ele>
        <time>2010-01-01T01:49:47Z</time>
      </trkpt>
      <trkpt lat="30.84102000" lon="34.74781000">
        <ele>476.00000</ele>
        <time>2010-01-01T01:51:46Z</time>
      </trkpt>
      <trkpt lat="30.84409000" lon="34.74934000">
        <ele>483.00000</ele>
        <time>2010-01-01T01:53:59Z</time>
      </trkpt>
      <trkpt lat="30.84466000" lon="34.74985000">
        <ele>487.00000</ele>
        <time>2010-01-01T01:54:28Z</time>
      </trkpt>
      <trkpt lat="30.84669000" lon="34.75016000">
        <ele>496.00000</ele>
        <time>2010-01-01T01:55:50Z</time>
      </trkpt>
      <trkpt lat="30.84691000" lon="34.75035000">
        <ele>498.00000</ele>
        <time>2010-01-01T01:56:01Z</time>
      </trkpt>
      <trkpt lat="30.84701000" lon="34.75116000">
        <ele>499.00000</ele>
        <time>2010-01-01T01:56:29Z</time>
      </trkpt>
      <trkpt lat="30.84697000" lon="34.75195000">
        <ele>502.00000</ele>
        <time>2010-01-01T01:56:56Z</time>
      </trkpt>
      <trkpt lat="30.84692000" lon="34.75229000">
        <ele>501.00000</ele>
        <time>2010-01-01T01:57:08Z</time>
      </trkpt>
      <trkpt lat="30.84730000" lon="34.75277000">
        <ele>502.00000</ele>
        <time>2010-01-01T01:57:31Z</time>
      </trkpt>
      <trkpt lat="30.84806000" lon="34.75301000">
        <ele>505.00000</ele>
        <time>2010-01-01T01:58:02Z</time>
      </trkpt>
      <trkpt lat="30.84846000" lon="34.75354000">
        <ele>504.00000</ele>
        <time>2010-01-01T01:58:26Z</time>
      </trkpt>
      <trkpt lat="30.84860000" lon="34.75379000">
        <ele>504.00000</ele>
        <time>2010-01-01T01:58:37Z</time>
      </trkpt>
      <trkpt lat="30.84887000" lon="34.75450000">
        <ele>506.00000</ele>
        <time>2010-01-01T01:59:03Z</time>
      </trkpt>
      <trkpt lat="30.84897000" lon="34.75526000">
        <ele>510.00000</ele>
        <time>2010-01-01T01:59:30Z</time>
      </trkpt>
      <trkpt lat="30.84888000" lon="34.75694000">
        <ele>514.00000</ele>
        <time>2010-01-01T02:00:28Z</time>
      </trkpt>
      <trkpt lat="30.84862000" lon="34.75799000">
        <ele>513.00000</ele>
        <time>2010-01-01T02:01:05Z</time>
      </trkpt>
      <trkpt lat="30.84792000" lon="34.75945000">
        <ele>511.00000</ele>
        <time>2010-01-01T02:02:03Z</time>
      </trkpt>
      <trkpt lat="30.84775000" lon="34.76016000">
        <ele>507.00000</ele>
        <time>2010-01-01T02:02:28Z</time>
      </trkpt>
      <trkpt lat="30.84784000" lon="34.76088000">
        <ele>507.00000</ele>
        <time>2010-01-01T02:02:53Z</time>
      </trkpt>
      <trkpt lat="30.84830000" lon="34.76245000">
        <ele>498.00000</ele>
        <time>2010-01-01T02:03:50Z</time>
      </trkpt>
      <trkpt lat="30.84912000" lon="34.76482000">
        <ele>498.00000</ele>
        <time>2010-01-01T02:05:18Z</time>
      </trkpt>
      <trkpt lat="30.84958000" lon="34.76592000">
        <ele>495.00000</ele>
        <time>2010-01-01T02:06:00Z</time>
      </trkpt>
      <trkpt lat="30.85010000" lon="34.76696000">
        <ele>492.00000</ele>
        <time>2010-01-01T02:06:41Z</time>
      </trkpt>
      <trkpt lat="30.85066000" lon="34.76769000">
        <ele>490.00000</ele>
        <time>2010-01-01T02:07:15Z</time>
      </trkpt>
      <trkpt lat="30.85153000" lon="34.76837000">
        <ele>495.00000</ele>
        <time>2010-01-01T02:07:57Z</time>
      </trkpt>
      <trkpt lat="30.85257000" lon="34.76892000">
        <ele>494.00000</ele>
        <time>2010-01-01T02:08:43Z</time>
      </trkpt>
      <trkpt lat="30.85318000" lon="34.76935000">
        <ele>492.00000</ele>
        <time>2010-01-01T02:09:11Z</time>
      </trkpt>
      <trkpt lat="30.85401000" lon="34.77007000">
        <ele>493.00000</ele>
        <time>2010-01-01T02:09:53Z</time>
      </trkpt>
      <trkpt lat="30.85412000" lon="34.77048000">
        <ele>492.00000</ele>
        <time>2010-01-01T02:10:07Z</time>
      </trkpt>
      <trkpt lat="30.85405000" lon="34.77064000">
        <ele>491.00000</ele>
        <time>2010-01-01T02:10:13Z</time>
      </trkpt>
      <trkpt lat="30.85314000" lon="34.77412000">
        <ele>485.00000</ele>
        <time>2010-01-01T02:12:18Z</time>
      </trkpt>
      <trkpt lat="30.85231000" lon="34.77572000">
        <ele>478.00000</ele>
        <time>2010-01-01T02:13:23Z</time>
      </trkpt>
      <trkpt lat="30.85100000" lon="34.77768000">
        <ele>482.00000</ele>
        <time>2010-01-01T02:14:48Z</time>
      </trkpt>
      <trkpt lat="30.85028000" lon="34.77704000">
        <ele>481.00000</ele>
        <time>2010-01-01T02:15:24Z</time>
      </trkpt>
      <trkpt lat="30.85000000" lon="34.77745000">
        <ele>481.00000</ele>
        <time>2010-01-01T02:15:42Z</time>
      </trkpt>
    </trkseg>
  </trk>
</gpx>

